createdAt,value
2022-08-12T00:11:16.759Z,0.00
2022-08-12T00:23:17.198Z,0.00
2022-08-12T00:35:17.653Z,0.00
2022-08-12T00:47:25.254Z,0.00
2022-08-12T00:59:18.571Z,0.00
2022-08-12T01:11:19.020Z,0.00
2022-08-12T01:23:19.456Z,0.11
2022-08-12T01:35:19.911Z,0.00
2022-08-12T01:47:20.393Z,0.05
2022-08-12T01:59:20.839Z,0.01
2022-08-12T02:11:21.299Z,0.00
2022-08-12T02:23:21.729Z,0.14
2022-08-12T02:35:22.222Z,0.00
2022-08-12T02:47:58.092Z,0.00
2022-08-12T02:59:23.062Z,0.06
2022-08-12T03:11:23.559Z,0.05
2022-08-12T03:23:29.984Z,0.10
2022-08-12T03:35:40.403Z,0.00
2022-08-12T03:47:24.916Z,0.06
2022-08-12T03:59:25.354Z,0.15
2022-08-12T04:11:29.196Z,0.01
2022-08-12T04:23:26.276Z,0.00
2022-08-12T04:35:26.715Z,0.01
2022-08-12T04:47:27.187Z,0.00
2022-08-12T04:59:27.654Z,0.17
2022-08-12T05:11:28.097Z,0.00
2022-08-12T05:23:28.557Z,0.00
2022-08-12T05:35:29.033Z,0.14
2022-08-12T05:47:49.848Z,0.01
2022-08-12T05:59:29.882Z,0.01
2022-08-12T06:11:30.367Z,0.01
2022-08-12T06:23:30.849Z,0.01
2022-08-12T06:35:48.375Z,0.29
2022-08-12T06:47:31.735Z,0.30
2022-08-12T06:59:32.190Z,0.94
2022-08-12T07:11:32.617Z,1.19
2022-08-12T07:23:33.114Z,1.36
2022-08-12T07:35:33.538Z,0.28
2022-08-12T07:47:33.996Z,1.09
2022-08-12T07:59:34.461Z,1.01
2022-08-12T08:11:34.913Z,1.39
2022-08-12T08:23:35.378Z,2.00
2022-08-12T08:35:46.825Z,1.10
2022-08-12T08:47:36.289Z,1.56
2022-08-12T08:59:36.729Z,1.76
2022-08-12T09:12:07.198Z,1.69
2022-08-12T09:24:00.419Z,2.27
2022-08-12T09:35:43.094Z,2.29
2022-08-12T09:47:38.726Z,1.58
2022-08-12T10:00:17.665Z,1.42
2022-08-12T10:12:10.443Z,1.19
2022-08-12T10:23:41.026Z,1.92
2022-08-12T10:35:40.397Z,2.06
2022-08-12T10:48:07.625Z,2.23
2022-08-12T11:00:30.304Z,1.65
2022-08-12T11:12:36.949Z,2.20
2022-08-12T11:23:42.223Z,1.93
2022-08-12T11:35:43.027Z,1.72
2022-08-12T11:47:43.066Z,2.23
2022-08-12T12:11:49.364Z,2.06
2022-08-12T12:23:47.163Z,1.68
2022-08-12T12:36:05.456Z,2.66
2022-08-12T12:47:45.372Z,2.36
2022-08-12T12:59:56.310Z,1.61
2022-08-12T13:11:46.279Z,1.75
2022-08-12T13:23:47.971Z,1.51
2022-08-12T13:36:05.067Z,1.69
2022-08-12T13:47:47.699Z,1.73
2022-08-12T13:59:55.483Z,2.11
2022-08-12T14:11:58.486Z,1.52
2022-08-12T14:24:04.575Z,1.82
2022-08-12T14:35:49.529Z,1.56
2022-08-12T14:47:50.172Z,2.76
2022-08-12T14:59:56.351Z,1.70
2022-08-12T15:11:55.599Z,1.84
2022-08-12T15:23:55.469Z,2.26
2022-08-12T15:35:53.918Z,1.74
2022-08-12T15:47:52.347Z,1.27
2022-08-12T16:00:06.452Z,0.81
2022-08-12T16:11:53.174Z,0.39
2022-08-12T16:23:57.912Z,0.17
2022-08-12T16:35:54.199Z,0.23
2022-08-12T16:47:58.694Z,0.48
2022-08-12T16:59:55.168Z,0.25
2022-08-12T17:11:55.437Z,0.07
2022-08-12T17:23:55.913Z,0.19
2022-08-12T17:35:56.338Z,0.49
2022-08-12T17:48:04.873Z,0.00
2022-08-12T17:59:57.293Z,0.07
2022-08-12T18:12:05.768Z,0.02
2022-08-12T18:23:58.160Z,0.03
2022-08-12T18:35:58.664Z,0.00
2022-08-12T18:47:59.072Z,0.00
2022-08-12T19:00:00.710Z,0.00
2022-08-12T19:12:00.016Z,0.00
2022-08-12T19:24:00.477Z,0.01
2022-08-12T19:36:14.307Z,0.00
2022-08-12T19:48:01.310Z,0.03
2022-08-12T20:00:03.529Z,0.00
2022-08-12T20:12:14.504Z,0.08
2022-08-12T20:24:02.717Z,0.01
2022-08-12T20:36:14.468Z,0.01
2022-08-12T20:48:04.433Z,0.07
2022-08-12T21:00:04.142Z,0.00
2022-08-12T21:12:04.536Z,0.00
2022-08-12T21:24:04.999Z,0.00
2022-08-12T21:36:05.435Z,0.00
2022-08-12T21:48:05.897Z,0.00
2022-08-12T22:00:17.311Z,0.00
2022-08-12T22:12:06.827Z,0.00
2022-08-12T22:24:07.251Z,0.00
2022-08-12T22:36:07.743Z,0.00
2022-08-12T22:48:08.130Z,0.00
2022-08-12T23:00:24.479Z,0.08
2022-08-12T23:12:09.078Z,0.13
2022-08-12T23:24:10.809Z,0.02
2022-08-12T23:36:10.012Z,0.14
2022-08-12T23:48:22.726Z,0.31
